My Little Violet — ZCPE7 — position and weather

sailwx.info

Track history (hours):
 
Tides and Currents Weather Stations Pressure Air Temp Water Temp Dewpoint Dewpoint Depression Visibility Wind Speed Wind Dir Waves Ship Positions

My Little Violet

Last reported at 2014-Aug-29 04:33 UTC. Time now 2014-Aug-29 05:31 UTC.
Position N 43°17' E 006°37'.

Length 45 m; draft 2.9 m.

Type: Pleasure craft. MMSI: 319496000.

Date/timePositionNaut miles runAvg speedWind from/ knotsBaromVisibWave heightAir tempDewpointWater temp
2014-Aug-29 04:33N 43°17' E 006°37'0 0.0
2014-Aug-29 03:26N 43°17' E 006°37'0 0.0
2014-Aug-29 02:26N 43°17' E 006°37'0 0.0
2014-Aug-29 01:32N 43°17' E 006°37'0 0.0
2014-Aug-29 00:32N 43°17' E 006°37'0 0.0
2014-Aug-28 23:29N 43°17' E 006°37'0 0.0
2014-Aug-28 22:32N 43°17' E 006°37'0 0.0
2014-Aug-28 21:32N 43°17' E 006°37'0 0.0
2014-Aug-28 20:32N 43°17' E 006°37'0 0.0
2014-Aug-28 19:26N 43°17' E 006°37'0 0.0
2014-Aug-28 18:17N 43°17' E 006°37'0 0.0
2014-Aug-28 17:32N 43°17' E 006°37'0 0.0
2014-Aug-28 16:32N 43°17' E 006°37'0 0.0
2014-Aug-28 15:33N 43°17' E 006°37'0 0.0
2014-Aug-28 14:33N 43°17' E 006°37'0 0.0
2014-Aug-28 13:33N 43°17' E 006°37'0 0.0
2014-Aug-28 12:33N 43°17' E 006°37'0 0.0
2014-Aug-28 11:33N 43°17' E 006°37'0 0.0
2014-Aug-28 10:33N 43°17' E 006°37'0 0.0
2014-Aug-28 09:33N 43°17' E 006°37'0 0.0
2014-Aug-28 08:33N 43°17' E 006°37'0 0.0
2014-Aug-28 07:34N 43°17' E 006°37'0 0.0
2014-Aug-28 06:33N 43°17' E 006°37'0 0.0
2014-Aug-28 05:33N 43°17' E 006°37'0 0.0
2014-Aug-28 04:33N 43°17' E 006°37'0 0.0
2014-Aug-28 03:34N 43°17' E 006°37'0 0.0
2014-Aug-28 02:33N 43°17' E 006°37'0 0.0
2014-Aug-28 01:33N 43°17' E 006°37'0 0.0
2014-Aug-28 00:33N 43°17' E 006°37'0 0.0
2014-Aug-27 23:33N 43°17' E 006°37'0 0.0
2014-Aug-27 22:33N 43°17' E 006°37'0 0.1
2014-Aug-27 21:34N 43°17' E 006°37'0 0.0
2014-Aug-27 20:33N 43°17' E 006°37'0 0.0
2014-Aug-27 19:33N 43°17' E 006°37'0 0.0
2014-Aug-27 18:33N 43°17' E 006°37'0 0.0
2014-Aug-27 17:33N 43°17' E 006°37'0 0.0
2014-Aug-27 16:33N 43°17' E 006°37'4 3.9
2014-Aug-27 15:33N 43°15' E 006°42'2 1.9
2014-Aug-27 14:33N 43°14' E 006°40'0 0.0
2014-Aug-27 13:33N 43°14' E 006°40'1 0.7
2014-Aug-27 12:31N 43°14' E 006°41'3 3.6
2014-Aug-27 11:33N 43°16' E 006°37'0 0.0
2014-Aug-27 10:33N 43°16' E 006°37'0 0.0
2014-Aug-27 09:24N 43°16' E 006°37'0 0.0
2014-Aug-27 08:30N 43°16' E 006°37'0 0.0
2014-Aug-27 07:30N 43°16' E 006°37'0 0.0
2014-Aug-27 06:33N 43°16' E 006°37'0 0.0
2014-Aug-27 05:33N 43°16' E 006°37'0 0.0
2014-Aug-27 04:33N 43°16' E 006°37'0 0.0
2014-Aug-27 03:33N 43°16' E 006°37'0 0.0
2014-Aug-27 02:33N 43°16' E 006°37'0 0.0
2014-Aug-27 01:33N 43°16' E 006°37'0 0.0
2014-Aug-27 00:33N 43°16' E 006°37'0 0.0
2014-Aug-26 23:33N 43°16' E 006°37'0 0.0
2014-Aug-26 22:30N 43°16' E 006°37'0 0.0
2014-Aug-26 21:30N 43°16' E 006°37'0 0.0
2014-Aug-26 20:30N 43°16' E 006°37'0 0.0
2014-Aug-26 19:33N 43°16' E 006°37'0 0.0
2014-Aug-26 18:27N 43°16' E 006°37'0 0.0
2014-Aug-26 17:27N 43°16' E 006°37'0 0.0
2014-Aug-26 16:33N 43°16' E 006°37'0 0.0
2014-Aug-26 15:33N 43°16' E 006°37'0 0.0
2014-Aug-26 14:32N 43°16' E 006°37'0 0.0
2014-Aug-26 13:32N 43°16' E 006°37'0 0.0
2014-Aug-26 12:29N 43°16' E 006°37'0 0.0
2014-Aug-26 11:32N 43°16' E 006°37'0 0.0
2014-Aug-26 09:20N 43°16' E 006°37'1 0.7
2014-Aug-26 08:28N 43°16' E 006°38'0 0.0
2014-Aug-26 07:33N 43°16' E 006°38'0 0.0
2014-Aug-26 06:33N 43°16' E 006°38'0 0.0
2014-Aug-26 05:27N 43°16' E 006°38'0 0.0
2014-Aug-26 04:33N 43°16' E 006°38'0 0.0
2014-Aug-26 03:33N 43°16' E 006°38'0 0.0
2014-Aug-26 02:33N 43°16' E 006°38'0 0.0
2014-Aug-26 01:33N 43°16' E 006°38'0 0.0
2014-Aug-26 00:33N 43°16' E 006°38'0 0.0
2014-Aug-25 23:33N 43°16' E 006°38'0 0.0
2014-Aug-25 22:27N 43°16' E 006°38'0 0.0
2014-Aug-25 21:33N 43°16' E 006°38'0 0.0
2014-Aug-25 20:33N 43°16' E 006°38'0 0.0
2014-Aug-25 19:33N 43°16' E 006°38'0 0.0
2014-Aug-25 18:24N 43°16' E 006°38'0 0.0
2014-Aug-25 17:27N 43°16' E 006°38'0 0.0
2014-Aug-25 16:33N 43°16' E 006°38'0 0.0
2014-Aug-25 15:20N 43°16' E 006°38'0 0.0
2014-Aug-25 14:32N 43°16' E 006°38'0 0.0
2014-Aug-25 13:26N 43°16' E 006°38'0 0.0
2014-Aug-25 12:29N 43°16' E 006°38'0 0.0
2014-Aug-25 11:32N 43°16' E 006°38'0 0.0
2014-Aug-25 10:20N 43°16' E 006°38'0 0.0
2014-Aug-25 09:32N 43°16' E 006°38'0 0.0
2014-Aug-25 08:32N 43°16' E 006°38'0 0.0
2014-Aug-25 07:32N 43°16' E 006°38'0 0.0
2014-Aug-25 06:26N 43°16' E 006°38'0 0.0
2014-Aug-25 05:32N 43°16' E 006°38'0 0.0
2014-Aug-25 04:26N 43°16' E 006°38'0 0.0
2014-Aug-25 03:32N 43°16' E 006°38'0 0.0
2014-Aug-25 02:26N 43°16' E 006°38'0 0.0
2014-Aug-25 01:32N 43°16' E 006°38'0 0.0
2014-Aug-25 00:32N 43°16' E 006°38'0 0.0
2014-Aug-24 23:26N 43°16' E 006°38'0 0.0
2014-Aug-24 22:26N 43°16' E 006°38'0 0.0
2014-Aug-24 21:29N 43°16' E 006°38'0 0.0
2014-Aug-24 20:32N 43°16' E 006°38'0 0.0
2014-Aug-24 19:29N 43°16' E 006°38'0 0.0
2014-Aug-24 18:32N 43°16' E 006°38'0 0.0
2014-Aug-24 17:26N 43°16' E 006°38'0 0.0
2014-Aug-24 16:32N 43°16' E 006°38'0 0.0
2014-Aug-24 15:29N 43°16' E 006°38'0 0.0
2014-Aug-24 14:29N 43°16' E 006°38'0 0.0
2014-Aug-24 13:26N 43°16' E 006°38'0 0.0
2014-Aug-24 12:32N 43°16' E 006°38'0 0.0
2014-Aug-24 11:32N 43°16' E 006°38'0 0.0
2014-Aug-24 10:29N 43°16' E 006°38'0 0.0
2014-Aug-24 09:32N 43°16' E 006°38'0 0.0
2014-Aug-24 08:34N 43°16' E 006°38'0 0.0
2014-Aug-24 07:34N 43°16' E 006°38'0 0.0
2014-Aug-24 06:34N 43°16' E 006°38'0 0.0
2014-Aug-24 05:34N 43°16' E 006°38'0 0.0
2014-Aug-24 04:34N 43°16' E 006°38'0 0.0
2014-Aug-24 03:34N 43°16' E 006°38'0 0.0
2014-Aug-24 02:34N 43°16' E 006°38'0 0.0
2014-Aug-24 01:34N 43°16' E 006°38'0 0.0
2014-Aug-24 00:33N 43°16' E 006°38'0 0.0
2014-Aug-23 23:34N 43°16' E 006°38'0 0.0
2014-Aug-23 22:33N 43°16' E 006°38'0 0.0
2014-Aug-23 21:33N 43°16' E 006°38'0 0.0
2014-Aug-23 20:34N 43°16' E 006°38'0 0.0
2014-Aug-23 19:34N 43°16' E 006°38'0 0.0
2014-Aug-23 03:33N 43°16' E 006°38'0 0.0
2014-Aug-23 02:34N 43°16' E 006°38'0 0.0
2014-Aug-23 01:34N 43°16' E 006°38'0 0.0
2014-Aug-23 00:33N 43°16' E 006°38'0 0.0
2014-Aug-22 22:33N 43°16' E 006°38'0 0.0
2014-Aug-22 21:34N 43°16' E 006°38'0 0.0
2014-Aug-22 20:33N 43°16' E 006°38'0 0.0
2014-Aug-22 19:33N 43°16' E 006°38'0 0.0
2014-Aug-22 18:34N 43°16' E 006°38'0 0.0
2014-Aug-22 17:34N 43°16' E 006°38'0 0.0
2014-Aug-22 16:33N 43°16' E 006°38'0 0.0
2014-Aug-22 15:34N 43°16' E 006°38'0 0.0
2014-Aug-22 14:33N 43°16' E 006°38'0 0.0
2014-Aug-22 13:34N 43°16' E 006°38'0 0.1
2014-Aug-22 12:34N 43°16' E 006°38'1 0.5
2014-Aug-22 11:34N 43°17' E 006°38'0 0.0
2014-Aug-22 10:32N 43°16' E 006°38'0 0.0
2014-Aug-22 09:34N 43°16' E 006°38'0 0.0
2014-Aug-22 08:34N 43°16' E 006°38'0 0.0
2014-Aug-22 07:34N 43°16' E 006°38'0 0.0
2014-Aug-22 06:33N 43°16' E 006°38'0 0.0
2014-Aug-22 05:33N 43°16' E 006°38'0 0.0
2014-Aug-22 04:33N 43°16' E 006°38'0 0.0
2014-Aug-22 03:33N 43°16' E 006°38'0 0.0
2014-Aug-22 02:34N 43°16' E 006°38'0 0.0
2014-Aug-22 01:34N 43°16' E 006°38'0 0.0
2014-Aug-22 00:34N 43°16' E 006°38'0 0.0
2014-Aug-21 23:33N 43°16' E 006°38'0 0.0
2014-Aug-21 22:34N 43°16' E 006°38'0 0.0
2014-Aug-21 21:34N 43°17' E 006°38'0 0.0
2014-Aug-21 20:33N 43°16' E 006°38'0 0.0
2014-Aug-21 19:34N 43°16' E 006°38'0 0.0
2014-Aug-21 18:34N 43°16' E 006°38'0 0.0
2014-Aug-21 17:34N 43°16' E 006°38'4 4.0
2014-Aug-21 16:33N 43°16' E 006°43'4 3.9
2014-Aug-21 15:34N 43°13' E 006°40'0 0.0
2014-Aug-21 14:34N 43°13' E 006°40'0 0.0
2014-Aug-21 13:33N 43°13' E 006°40'4 3.9
2014-Aug-21 12:33N 43°16' E 006°43'4 4.4
2014-Aug-21 11:34N 43°17' E 006°37'0 0.0
2014-Aug-21 10:34N 43°17' E 006°37'0 0.0
2014-Aug-21 09:34N 43°16' E 006°37'0 0.0
2014-Aug-21 08:33N 43°17' E 006°37'0 0.0
2014-Aug-21 07:34N 43°17' E 006°37'0 0.0
2014-Aug-21 06:34N 43°17' E 006°37'0 0.0
2014-Aug-21 05:34N 43°17' E 006°37'0 0.0
2014-Aug-21 04:34N 43°17' E 006°37'0 0.0
2014-Aug-21 03:34N 43°17' E 006°37'0 0.0
2014-Aug-21 02:34N 43°17' E 006°37'0 0.0
2014-Aug-21 01:34N 43°17' E 006°37'0 0.0
2014-Aug-21 00:34N 43°17' E 006°37'0 0.0
2014-Aug-20 23:34N 43°17' E 006°37'0 0.0
2014-Aug-20 22:34N 43°17' E 006°37'0 0.0
2014-Aug-20 21:34N 43°16' E 006°37'4 4.5
2014-Aug-20 20:34N 43°15' E 006°43'3 2.6
2014-Aug-20 19:34N 43°14' E 006°40'0 0.0
2014-Aug-20 18:34N 43°14' E 006°40'0 0.0
2014-Aug-20 17:33N 43°14' E 006°40'0 0.0
2014-Aug-20 16:34N 43°14' E 006°40'0 0.0
2014-Aug-20 15:34N 43°14' E 006°40'0 0.0
2014-Aug-20 14:33N 43°14' E 006°40'0 0.0
2014-Aug-20 13:33N 43°14' E 006°40'3 3.3
2014-Aug-20 12:33N 43°16' E 006°43'4 4.3
2014-Aug-20 11:34N 43°17' E 006°37'0 0.1
2014-Aug-20 10:33N 43°17' E 006°37'0 0.0
2014-Aug-20 09:34N 43°17' E 006°37'0 0.0
2014-Aug-20 08:34N 43°17' E 006°37'0 0.0
2014-Aug-20 07:34N 43°17' E 006°37'0 0.0
2014-Aug-20 06:33N 43°17' E 006°37'0 0.0
2014-Aug-20 05:34N 43°17' E 006°37'0 0.0
2014-Aug-20 04:34N 43°17' E 006°37'0 0.0
2014-Aug-20 03:33N 43°17' E 006°37'0 0.0
2014-Aug-20 02:34N 43°17' E 006°37'0 0.0
2014-Aug-20 01:34N 43°17' E 006°37'0 0.0
2014-Aug-20 00:33N 43°17' E 006°37'0 0.0
2014-Aug-19 23:34N 43°17' E 006°37'0 0.0
2014-Aug-19 22:33N 43°17' E 006°37'0 0.0
2014-Aug-19 21:34N 43°17' E 006°37'0 0.0
2014-Aug-19 20:34N 43°17' E 006°37'0 0.0
2014-Aug-19 19:33N 43°17' E 006°37'0 0.0
2014-Aug-19 18:34N 43°17' E 006°37'0 0.0
2014-Aug-19 17:34N 43°17' E 006°37'0 0.0
2014-Aug-19 16:34N 43°17' E 006°37'0 0.0
2014-Aug-19 15:34N 43°17' E 006°37'0 0.0
2014-Aug-19 14:34N 43°17' E 006°37'0 0.0
2014-Aug-19 13:34N 43°17' E 006°37'0 0.0
2014-Aug-19 12:34N 43°17' E 006°37'0 0.0
2014-Aug-19 11:34N 43°17' E 006°37'0 0.0
2014-Aug-19 10:34N 43°17' E 006°37'0 0.0
2014-Aug-19 09:34N 43°17' E 006°37'0 0.0
2014-Aug-19 08:34N 43°17' E 006°37'0 0.0
2014-Aug-19 07:34N 43°17' E 006°37'0 0.0
2014-Aug-19 06:33N 43°17' E 006°37'0 0.0
2014-Aug-19 05:34N 43°17' E 006°37'0 0.0
2014-Aug-19 04:34N 43°17' E 006°37'  
Track history (hours):
 
Tides and Currents Weather Stations Pressure Air Temp Water Temp Dewpoint Dewpoint Depression Visibility Wind Speed Wind Dir Waves Ship Positions

My Little Violet

Last reported at 2014-Aug-29 04:33 UTC. Time now 2014-Aug-29 05:31 UTC.
Position N 43°17' E 006°37'.

Length 45 m; draft 2.9 m.

Type: Pleasure craft. MMSI: 319496000.

Date/timePositionNaut miles runAvg speedWind from/ knotsBaromVisibWave heightAir tempDewpointWater temp
2014-Aug-29 04:33N 43°17' E 006°37'0 0.0
2014-Aug-29 03:26N 43°17' E 006°37'0 0.0
2014-Aug-29 02:26N 43°17' E 006°37'0 0.0
2014-Aug-29 01:32N 43°17' E 006°37'0 0.0
2014-Aug-29 00:32N 43°17' E 006°37'0 0.0
2014-Aug-28 23:29N 43°17' E 006°37'0 0.0
2014-Aug-28 22:32N 43°17' E 006°37'0 0.0
2014-Aug-28 21:32N 43°17' E 006°37'0 0.0
2014-Aug-28 20:32N 43°17' E 006°37'0 0.0
2014-Aug-28 19:26N 43°17' E 006°37'0 0.0
2014-Aug-28 18:17N 43°17' E 006°37'0 0.0
2014-Aug-28 17:32N 43°17' E 006°37'0 0.0
2014-Aug-28 16:32N 43°17' E 006°37'0 0.0
2014-Aug-28 15:33N 43°17' E 006°37'0 0.0
2014-Aug-28 14:33N 43°17' E 006°37'0 0.0
2014-Aug-28 13:33N 43°17' E 006°37'0 0.0
2014-Aug-28 12:33N 43°17' E 006°37'0 0.0
2014-Aug-28 11:33N 43°17' E 006°37'0 0.0
2014-Aug-28 10:33N 43°17' E 006°37'0 0.0
2014-Aug-28 09:33N 43°17' E 006°37'0 0.0
2014-Aug-28 08:33N 43°17' E 006°37'0 0.0
2014-Aug-28 07:34N 43°17' E 006°37'0 0.0
2014-Aug-28 06:33N 43°17' E 006°37'0 0.0
2014-Aug-28 05:33N 43°17' E 006°37'0 0.0
2014-Aug-28 04:33N 43°17' E 006°37'0 0.0
2014-Aug-28 03:34N 43°17' E 006°37'0 0.0
2014-Aug-28 02:33N 43°17' E 006°37'0 0.0
2014-Aug-28 01:33N 43°17' E 006°37'0 0.0
2014-Aug-28 00:33N 43°17' E 006°37'0 0.0
2014-Aug-27 23:33N 43°17' E 006°37'0 0.0
2014-Aug-27 22:33N 43°17' E 006°37'0 0.1
2014-Aug-27 21:34N 43°17' E 006°37'0 0.0
2014-Aug-27 20:33N 43°17' E 006°37'0 0.0
2014-Aug-27 19:33N 43°17' E 006°37'0 0.0
2014-Aug-27 18:33N 43°17' E 006°37'0 0.0
2014-Aug-27 17:33N 43°17' E 006°37'0 0.0
2014-Aug-27 16:33N 43°17' E 006°37'4 3.9
2014-Aug-27 15:33N 43°15' E 006°42'2 1.9
2014-Aug-27 14:33N 43°14' E 006°40'0 0.0
2014-Aug-27 13:33N 43°14' E 006°40'1 0.7
2014-Aug-27 12:31N 43°14' E 006°41'3 3.6
2014-Aug-27 11:33N 43°16' E 006°37'0 0.0
2014-Aug-27 10:33N 43°16' E 006°37'0 0.0
2014-Aug-27 09:24N 43°16' E 006°37'0 0.0
2014-Aug-27 08:30N 43°16' E 006°37'0 0.0
2014-Aug-27 07:30N 43°16' E 006°37'0 0.0
2014-Aug-27 06:33N 43°16' E 006°37'0 0.0
2014-Aug-27 05:33N 43°16' E 006°37'0 0.0
2014-Aug-27 04:33N 43°16' E 006°37'0 0.0
2014-Aug-27 03:33N 43°16' E 006°37'0 0.0
2014-Aug-27 02:33N 43°16' E 006°37'0 0.0
2014-Aug-27 01:33N 43°16' E 006°37'0 0.0
2014-Aug-27 00:33N 43°16' E 006°37'0 0.0
2014-Aug-26 23:33N 43°16' E 006°37'0 0.0
2014-Aug-26 22:30N 43°16' E 006°37'0 0.0
2014-Aug-26 21:30N 43°16' E 006°37'0 0.0
2014-Aug-26 20:30N 43°16' E 006°37'0 0.0
2014-Aug-26 19:33N 43°16' E 006°37'0 0.0
2014-Aug-26 18:27N 43°16' E 006°37'0 0.0
2014-Aug-26 17:27N 43°16' E 006°37'0 0.0
2014-Aug-26 16:33N 43°16' E 006°37'0 0.0
2014-Aug-26 15:33N 43°16' E 006°37'0 0.0
2014-Aug-26 14:32N 43°16' E 006°37'0 0.0
2014-Aug-26 13:32N 43°16' E 006°37'0 0.0
2014-Aug-26 12:29N 43°16' E 006°37'0 0.0
2014-Aug-26 11:32N 43°16' E 006°37'0 0.0
2014-Aug-26 09:20N 43°16' E 006°37'1 0.7
2014-Aug-26 08:28N 43°16' E 006°38'0 0.0
2014-Aug-26 07:33N 43°16' E 006°38'0 0.0
2014-Aug-26 06:33N 43°16' E 006°38'0 0.0
2014-Aug-26 05:27N 43°16' E 006°38'0 0.0
2014-Aug-26 04:33N 43°16' E 006°38'0 0.0
2014-Aug-26 03:33N 43°16' E 006°38'0 0.0
2014-Aug-26 02:33N 43°16' E 006°38'0 0.0
2014-Aug-26 01:33N 43°16' E 006°38'0 0.0
2014-Aug-26 00:33N 43°16' E 006°38'0 0.0
2014-Aug-25 23:33N 43°16' E 006°38'0 0.0
2014-Aug-25 22:27N 43°16' E 006°38'0 0.0
2014-Aug-25 21:33N 43°16' E 006°38'0 0.0
2014-Aug-25 20:33N 43°16' E 006°38'0 0.0
2014-Aug-25 19:33N 43°16' E 006°38'0 0.0
2014-Aug-25 18:24N 43°16' E 006°38'0 0.0
2014-Aug-25 17:27N 43°16' E 006°38'0 0.0
2014-Aug-25 16:33N 43°16' E 006°38'0 0.0
2014-Aug-25 15:20N 43°16' E 006°38'0 0.0
2014-Aug-25 14:32N 43°16' E 006°38'0 0.0
2014-Aug-25 13:26N 43°16' E 006°38'0 0.0
2014-Aug-25 12:29N 43°16' E 006°38'0 0.0
2014-Aug-25 11:32N 43°16' E 006°38'0 0.0
2014-Aug-25 10:20N 43°16' E 006°38'0 0.0
2014-Aug-25 09:32N 43°16' E 006°38'0 0.0
2014-Aug-25 08:32N 43°16' E 006°38'0 0.0
2014-Aug-25 07:32N 43°16' E 006°38'0 0.0
2014-Aug-25 06:26N 43°16' E 006°38'0 0.0
2014-Aug-25 05:32N 43°16' E 006°38'0 0.0
2014-Aug-25 04:26N 43°16' E 006°38'0 0.0
2014-Aug-25 03:32N 43°16' E 006°38'0 0.0
2014-Aug-25 02:26N 43°16' E 006°38'0 0.0
2014-Aug-25 01:32N 43°16' E 006°38'0 0.0
2014-Aug-25 00:32N 43°16' E 006°38'0 0.0
2014-Aug-24 23:26N 43°16' E 006°38'0 0.0
2014-Aug-24 22:26N 43°16' E 006°38'0 0.0
2014-Aug-24 21:29N 43°16' E 006°38'0 0.0
2014-Aug-24 20:32N 43°16' E 006°38'0 0.0
2014-Aug-24 19:29N 43°16' E 006°38'0 0.0
2014-Aug-24 18:32N 43°16' E 006°38'0 0.0
2014-Aug-24 17:26N 43°16' E 006°38'0 0.0
2014-Aug-24 16:32N 43°16' E 006°38'0 0.0
2014-Aug-24 15:29N 43°16' E 006°38'0 0.0
2014-Aug-24 14:29N 43°16' E 006°38'0 0.0
2014-Aug-24 13:26N 43°16' E 006°38'0 0.0
2014-Aug-24 12:32N 43°16' E 006°38'0 0.0
2014-Aug-24 11:32N 43°16' E 006°38'0 0.0
2014-Aug-24 10:29N 43°16' E 006°38'0 0.0
2014-Aug-24 09:32N 43°16' E 006°38'0 0.0
2014-Aug-24 08:34N 43°16' E 006°38'0 0.0
2014-Aug-24 07:34N 43°16' E 006°38'0 0.0
2014-Aug-24 06:34N 43°16' E 006°38'0 0.0
2014-Aug-24 05:34N 43°16' E 006°38'0 0.0
2014-Aug-24 04:34N 43°16' E 006°38'0 0.0
2014-Aug-24 03:34N 43°16' E 006°38'0 0.0
2014-Aug-24 02:34N 43°16' E 006°38'0 0.0
2014-Aug-24 01:34N 43°16' E 006°38'0 0.0
2014-Aug-24 00:33N 43°16' E 006°38'0 0.0
2014-Aug-23 23:34N 43°16' E 006°38'0 0.0
2014-Aug-23 22:33N 43°16' E 006°38'0 0.0
2014-Aug-23 21:33N 43°16' E 006°38'0 0.0
2014-Aug-23 20:34N 43°16' E 006°38'0 0.0
2014-Aug-23 19:34N 43°16' E 006°38'0 0.0
2014-Aug-23 03:33N 43°16' E 006°38'0 0.0
2014-Aug-23 02:34N 43°16' E 006°38'0 0.0
2014-Aug-23 01:34N 43°16' E 006°38'0 0.0
2014-Aug-23 00:33N 43°16' E 006°38'0 0.0
2014-Aug-22 22:33N 43°16' E 006°38'0 0.0
2014-Aug-22 21:34N 43°16' E 006°38'0 0.0
2014-Aug-22 20:33N 43°16' E 006°38'0 0.0
2014-Aug-22 19:33N 43°16' E 006°38'0 0.0
2014-Aug-22 18:34N 43°16' E 006°38'0 0.0
2014-Aug-22 17:34N 43°16' E 006°38'0 0.0
2014-Aug-22 16:33N 43°16' E 006°38'0 0.0
2014-Aug-22 15:34N 43°16' E 006°38'0 0.0
2014-Aug-22 14:33N 43°16' E 006°38'0 0.0
2014-Aug-22 13:34N 43°16' E 006°38'0 0.1
2014-Aug-22 12:34N 43°16' E 006°38'1 0.5
2014-Aug-22 11:34N 43°17' E 006°38'0 0.0
2014-Aug-22 10:32N 43°16' E 006°38'0 0.0
2014-Aug-22 09:34N 43°16' E 006°38'0 0.0
2014-Aug-22 08:34N 43°16' E 006°38'0 0.0
2014-Aug-22 07:34N 43°16' E 006°38'0 0.0
2014-Aug-22 06:33N 43°16' E 006°38'0 0.0
2014-Aug-22 05:33N 43°16' E 006°38'0 0.0
2014-Aug-22 04:33N 43°16' E 006°38'0 0.0
2014-Aug-22 03:33N 43°16' E 006°38'0 0.0
2014-Aug-22 02:34N 43°16' E 006°38'0 0.0
2014-Aug-22 01:34N 43°16' E 006°38'0 0.0
2014-Aug-22 00:34N 43°16' E 006°38'0 0.0
2014-Aug-21 23:33N 43°16' E 006°38'0 0.0
2014-Aug-21 22:34N 43°16' E 006°38'0 0.0
2014-Aug-21 21:34N 43°17' E 006°38'0 0.0
2014-Aug-21 20:33N 43°16' E 006°38'0 0.0
2014-Aug-21 19:34N 43°16' E 006°38'0 0.0
2014-Aug-21 18:34N 43°16' E 006°38'0 0.0
2014-Aug-21 17:34N 43°16' E 006°38'4 4.0
2014-Aug-21 16:33N 43°16' E 006°43'4 3.9
2014-Aug-21 15:34N 43°13' E 006°40'0 0.0
2014-Aug-21 14:34N 43°13' E 006°40'0 0.0
2014-Aug-21 13:33N 43°13' E 006°40'4 3.9
2014-Aug-21 12:33N 43°16' E 006°43'4 4.4
2014-Aug-21 11:34N 43°17' E 006°37'0 0.0
2014-Aug-21 10:34N 43°17' E 006°37'0 0.0
2014-Aug-21 09:34N 43°16' E 006°37'0 0.0
2014-Aug-21 08:33N 43°17' E 006°37'0 0.0
2014-Aug-21 07:34N 43°17' E 006°37'0 0.0
2014-Aug-21 06:34N 43°17' E 006°37'0 0.0
2014-Aug-21 05:34N 43°17' E 006°37'0 0.0
2014-Aug-21 04:34N 43°17' E 006°37'0 0.0
2014-Aug-21 03:34N 43°17' E 006°37'0 0.0
2014-Aug-21 02:34N 43°17' E 006°37'0 0.0
2014-Aug-21 01:34N 43°17' E 006°37'0 0.0
2014-Aug-21 00:34N 43°17' E 006°37'0 0.0
2014-Aug-20 23:34N 43°17' E 006°37'0 0.0
2014-Aug-20 22:34N 43°17' E 006°37'0 0.0
2014-Aug-20 21:34N 43°16' E 006°37'4 4.5
2014-Aug-20 20:34N 43°15' E 006°43'3 2.6
2014-Aug-20 19:34N 43°14' E 006°40'0 0.0
2014-Aug-20 18:34N 43°14' E 006°40'0 0.0
2014-Aug-20 17:33N 43°14' E 006°40'0 0.0
2014-Aug-20 16:34N 43°14' E 006°40'0 0.0
2014-Aug-20 15:34N 43°14' E 006°40'0 0.0
2014-Aug-20 14:33N 43°14' E 006°40'0 0.0
2014-Aug-20 13:33N 43°14' E 006°40'3 3.3
2014-Aug-20 12:33N 43°16' E 006°43'4 4.3
2014-Aug-20 11:34N 43°17' E 006°37'0 0.1
2014-Aug-20 10:33N 43°17' E 006°37'0 0.0
2014-Aug-20 09:34N 43°17' E 006°37'0 0.0
2014-Aug-20 08:34N 43°17' E 006°37'0 0.0
2014-Aug-20 07:34N 43°17' E 006°37'0 0.0
2014-Aug-20 06:33N 43°17' E 006°37'0 0.0
2014-Aug-20 05:34N 43°17' E 006°37'0 0.0
2014-Aug-20 04:34N 43°17' E 006°37'0 0.0
2014-Aug-20 03:33N 43°17' E 006°37'0 0.0
2014-Aug-20 02:34N 43°17' E 006°37'0 0.0
2014-Aug-20 01:34N 43°17' E 006°37'0 0.0
2014-Aug-20 00:33N 43°17' E 006°37'0 0.0
2014-Aug-19 23:34N 43°17' E 006°37'0 0.0
2014-Aug-19 22:33N 43°17' E 006°37'0 0.0
2014-Aug-19 21:34N 43°17' E 006°37'0 0.0
2014-Aug-19 20:34N 43°17' E 006°37'0 0.0
2014-Aug-19 19:33N 43°17' E 006°37'0 0.0
2014-Aug-19 18:34N 43°17' E 006°37'0 0.0
2014-Aug-19 17:34N 43°17' E 006°37'0 0.0
2014-Aug-19 16:34N 43°17' E 006°37'0 0.0
2014-Aug-19 15:34N 43°17' E 006°37'0 0.0
2014-Aug-19 14:34N 43°17' E 006°37'0 0.0
2014-Aug-19 13:34N 43°17' E 006°37'0 0.0
2014-Aug-19 12:34N 43°17' E 006°37'0 0.0
2014-Aug-19 11:34N 43°17' E 006°37'0 0.0
2014-Aug-19 10:34N 43°17' E 006°37'0 0.0
2014-Aug-19 09:34N 43°17' E 006°37'0 0.0
2014-Aug-19 08:34N 43°17' E 006°37'0 0.0
2014-Aug-19 07:34N 43°17' E 006°37'0 0.0
2014-Aug-19 06:33N 43°17' E 006°37'0 0.0
2014-Aug-19 05:34N 43°17' E 006°37'0 0.0
2014-Aug-19 04:34N 43°17' E 006°37'  

Dump ship's entire track history